createdAt,value
2022-11-19T00:01:17.305Z,5.00
2022-11-19T00:03:20.484Z,5.00
2022-11-19T00:05:22.181Z,5.00
2022-11-19T00:07:23.895Z,5.00
2022-11-19T00:09:25.715Z,5.00
2022-11-19T00:11:46.762Z,5.00
2022-11-19T00:13:50.174Z,5.00
2022-11-19T00:15:52.403Z,5.00
2022-11-19T00:17:54.193Z,5.00
2022-11-19T00:19:56.016Z,5.00
2022-11-19T00:21:57.673Z,5.00
2022-11-19T00:23:59.759Z,5.00
2022-11-19T00:26:19.535Z,5.00
2022-11-19T00:28:21.179Z,5.00
2022-11-19T00:30:46.214Z,5.00
2022-11-19T00:32:45.772Z,5.00
2022-11-19T00:34:47.574Z,5.00
2022-11-19T00:36:49.281Z,5.00
2022-11-19T00:38:51.015Z,5.00
2022-11-19T00:40:52.759Z,5.00
2022-11-19T00:43:13.076Z,5.00
2022-11-19T00:45:15.219Z,5.00
2022-11-19T00:47:17.043Z,5.00
2022-11-19T00:49:19.198Z,5.00
2022-11-19T00:51:22.827Z,5.00
2022-11-19T00:53:24.534Z,5.00
2022-11-19T00:55:26.234Z,5.00
2022-11-19T00:57:28.024Z,5.00
2022-11-19T00:59:29.679Z,5.00
2022-11-19T01:01:31.587Z,5.00
2022-11-19T01:03:33.731Z,5.00
2022-11-19T01:05:35.431Z,5.00
2022-11-19T01:07:37.175Z,5.00
2022-11-19T01:09:38.868Z,4.90
2022-11-19T01:11:40.708Z,4.90
2022-11-19T01:13:42.722Z,4.90
2022-11-19T01:15:48.687Z,4.90
2022-11-19T01:17:50.396Z,4.90
2022-11-19T01:19:52.023Z,4.90
2022-11-19T01:21:53.671Z,4.90
2022-11-19T01:23:55.847Z,4.90
2022-11-19T01:25:58.008Z,4.90
2022-11-19T01:27:59.750Z,4.90
2022-11-19T01:30:01.456Z,4.90
2022-11-19T01:32:03.100Z,4.90
2022-11-19T01:34:04.741Z,4.90
2022-11-19T01:36:10.897Z,4.90
2022-11-19T01:38:12.512Z,5.00
2022-11-19T01:40:15.263Z,5.00
2022-11-19T01:42:44.708Z,5.00
2022-11-19T01:45:06.604Z,5.00
2022-11-19T01:47:08.351Z,5.00
2022-11-19T01:49:19.233Z,5.00
2022-11-19T01:51:29.532Z,5.00
2022-11-19T01:53:33.624Z,5.00
2022-11-19T01:55:37.223Z,5.00
2022-11-19T01:57:40.335Z,5.00
2022-11-19T01:59:43.719Z,5.00
2022-11-19T02:01:45.496Z,5.00
2022-11-19T02:03:48.295Z,5.00
2022-11-19T02:05:50.188Z,5.00
2022-11-19T02:07:57.691Z,5.10
2022-11-19T02:10:05.440Z,5.10
2022-11-19T02:12:14.919Z,5.00
2022-11-19T02:14:22.300Z,5.00
2022-11-19T02:16:35.123Z,5.10
2022-11-19T02:18:52.566Z,5.10
2022-11-19T02:21:02.121Z,5.00
2022-11-19T02:23:22.380Z,5.00
2022-11-19T02:25:39.384Z,5.10
2022-11-19T02:27:55.981Z,5.10
2022-11-19T02:30:03.679Z,5.10
2022-11-19T02:32:16.028Z,5.00
2022-11-19T02:34:27.702Z,5.00
2022-11-19T02:36:43.519Z,5.00
2022-11-19T02:38:51.650Z,5.00
2022-11-19T02:41:02.399Z,5.00
2022-11-19T02:43:28.574Z,5.10
2022-11-19T02:45:51.975Z,5.00
2022-11-19T05:03:44.457Z,5.10
2022-11-19T05:05:46.374Z,5.10
2022-11-19T05:07:48.083Z,5.00
2022-11-19T05:09:50.104Z,5.00
2022-11-19T05:11:51.727Z,5.10
2022-11-19T05:13:53.392Z,5.10
2022-11-19T05:15:55.225Z,5.10
2022-11-19T05:17:56.873Z,5.10
2022-11-19T05:20:00.238Z,5.10
2022-11-19T05:22:01.973Z,5.10
2022-11-19T05:24:03.802Z,5.10
2022-11-19T05:26:05.819Z,5.10
2022-11-19T05:28:07.593Z,5.10
2022-11-19T05:30:09.879Z,5.10
2022-11-19T05:32:11.526Z,5.10
2022-11-19T05:34:13.169Z,5.10
2022-11-19T05:36:14.913Z,5.10
2022-11-19T05:38:16.705Z,5.10
2022-11-19T05:40:18.610Z,5.10
2022-11-19T05:42:20.235Z,5.20
2022-11-19T05:44:22.128Z,5.20
2022-11-19T05:46:23.789Z,5.10
2022-11-19T05:48:25.391Z,5.20
2022-11-19T05:50:27.062Z,5.10
2022-11-19T05:52:28.854Z,5.20
2022-11-19T05:54:30.549Z,5.20
2022-11-19T05:56:32.367Z,5.20
2022-11-19T05:58:34.100Z,5.20
2022-11-19T06:00:35.816Z,5.20
2022-11-19T06:02:37.595Z,5.20
2022-11-19T06:04:39.457Z,5.20
2022-11-19T06:06:41.169Z,5.20
2022-11-19T06:08:42.850Z,5.20
2022-11-19T06:10:44.772Z,5.20
2022-11-19T06:12:46.453Z,5.20
2022-11-19T06:14:48.121Z,5.20
2022-11-19T06:17:02.493Z,5.20
2022-11-19T06:19:04.149Z,5.20
2022-11-19T06:21:11.928Z,5.20
2022-11-19T06:23:13.939Z,5.20
2022-11-19T06:25:15.651Z,5.20
2022-11-19T06:27:17.439Z,5.20
2022-11-19T06:29:19.878Z,5.20
2022-11-19T06:31:22.641Z,5.20
2022-11-19T06:33:24.304Z,5.20
2022-11-19T06:35:25.944Z,5.20
2022-11-19T06:37:27.691Z,5.20
2022-11-19T06:39:29.513Z,5.20
2022-11-19T06:41:31.196Z,5.20
2022-11-19T06:43:33.067Z,5.20
2022-11-19T06:45:34.749Z,5.20
2022-11-19T06:47:37.559Z,5.20
2022-11-19T06:49:39.324Z,5.20
2022-11-19T06:51:41.076Z,5.20
2022-11-19T06:53:42.786Z,5.30
2022-11-19T06:55:44.627Z,5.20
2022-11-19T06:57:46.295Z,5.30
2022-11-19T06:59:48.076Z,5.30
2022-11-19T07:01:49.743Z,5.30
2022-11-19T07:03:51.374Z,5.30
2022-11-19T07:05:59.595Z,5.30
2022-11-19T07:08:03.262Z,5.30
2022-11-19T07:10:05.699Z,5.30
2022-11-19T07:12:08.044Z,5.30
2022-11-19T07:14:09.766Z,5.30
2022-11-19T07:16:11.487Z,5.30
2022-11-19T07:18:13.960Z,5.40
2022-11-19T07:20:16.676Z,5.30
2022-11-19T07:22:18.330Z,5.40
2022-11-19T07:24:20.098Z,5.40
2022-11-19T07:26:21.863Z,5.40
2022-11-19T07:28:23.678Z,5.40
2022-11-19T07:30:25.428Z,5.40
2022-11-19T07:32:27.252Z,5.40
2022-11-19T07:34:29.085Z,5.40
2022-11-19T07:36:30.716Z,5.40
2022-11-19T07:38:36.782Z,5.40
2022-11-19T07:40:38.973Z,5.40
2022-11-19T07:42:49.863Z,5.40
2022-11-19T07:44:54.826Z,5.50
2022-11-19T07:46:57.069Z,5.50
2022-11-19T07:48:59.268Z,5.40
2022-11-19T07:51:01.056Z,5.50
2022-11-19T07:53:02.737Z,5.50
2022-11-19T07:55:04.990Z,5.40
2022-11-19T07:57:06.767Z,5.50
2022-11-19T07:59:08.534Z,5.60
2022-11-19T08:01:18.307Z,5.70
2022-11-19T08:03:20.225Z,5.80
2022-11-19T08:05:21.875Z,5.90
2022-11-19T08:07:24.803Z,6.00
2022-11-19T08:09:26.521Z,6.00
2022-11-19T08:11:28.838Z,6.00
2022-11-19T08:13:30.729Z,6.00
2022-11-19T08:15:33.684Z,6.00
2022-11-19T08:17:54.050Z,6.00
2022-11-19T08:19:55.703Z,6.00
2022-11-19T08:21:57.360Z,6.20
2022-11-19T08:23:59.002Z,6.30
2022-11-19T08:26:01.407Z,6.40
2022-11-19T08:28:04.185Z,6.40
2022-11-19T08:30:06.420Z,6.40
2022-11-19T08:32:08.115Z,6.30
2022-11-19T08:34:09.805Z,6.40
2022-11-19T08:36:11.782Z,6.50
2022-11-19T08:38:13.546Z,6.50
2022-11-19T08:40:15.751Z,6.50
2022-11-19T08:42:36.122Z,6.50
2022-11-19T08:44:38.503Z,6.50
2022-11-19T08:46:40.877Z,6.40
2022-11-19T08:48:42.568Z,6.40
2022-11-19T08:50:44.267Z,6.60
2022-11-19T08:52:45.958Z,6.70
2022-11-19T08:54:47.699Z,6.60
2022-11-19T08:56:49.449Z,6.60
2022-11-19T08:58:54.061Z,6.60
2022-11-19T09:00:56.375Z,6.80
2022-11-19T09:02:58.041Z,6.90
2022-11-19T09:04:59.731Z,7.00
2022-11-19T09:07:01.494Z,7.10
2022-11-19T09:09:04.381Z,7.20
2022-11-19T09:11:24.096Z,7.40
2022-11-19T09:13:26.065Z,7.50
2022-11-19T09:15:28.200Z,7.70
2022-11-19T09:17:29.888Z,7.70
2022-11-19T09:19:31.564Z,7.60
2022-11-19T09:21:33.232Z,7.50
2022-11-19T09:23:35.315Z,7.30
2022-11-19T09:25:36.956Z,7.20
2022-11-19T09:27:39.124Z,7.10
2022-11-19T09:29:40.797Z,7.10
2022-11-19T09:31:42.440Z,7.00
2022-11-19T09:33:47.100Z,7.00
2022-11-19T09:35:48.867Z,7.10
2022-11-19T09:37:50.560Z,7.20
2022-11-19T09:39:52.407Z,7.20
2022-11-19T09:42:11.718Z,7.20
2022-11-19T09:44:32.025Z,7.10
2022-11-19T09:46:51.864Z,7.10
2022-11-19T09:48:59.849Z,7.10
2022-11-19T09:51:15.010Z,7.20
2022-11-19T09:53:19.823Z,7.30
2022-11-19T09:55:36.136Z,7.50
2022-11-19T09:57:52.800Z,7.70
2022-11-19T09:59:58.997Z,7.70
2022-11-19T10:02:00.677Z,7.80
2022-11-19T10:04:02.384Z,7.90
2022-11-19T10:06:06.800Z,7.80
2022-11-19T10:08:15.538Z,7.70
2022-11-19T10:10:42.975Z,7.70
2022-11-19T10:12:44.760Z,7.70
2022-11-19T10:14:49.377Z,7.70
2022-11-19T10:16:59.753Z,7.50
2022-11-19T10:19:12.103Z,7.50
2022-11-19T10:21:41.294Z,7.40
2022-11-19T10:24:11.649Z,7.30
2022-11-19T10:26:16.919Z,7.20
2022-11-19T10:28:23.489Z,7.20
2022-11-19T10:30:28.895Z,7.10
2022-11-19T10:32:40.191Z,7.10
2022-11-19T10:34:42.247Z,7.00
2022-11-19T10:36:48.988Z,6.90
2022-11-19T10:38:53.533Z,6.90
2022-11-19T10:41:03.927Z,6.80
2022-11-19T10:43:41.656Z,6.80
2022-11-19T10:45:43.400Z,6.70
2022-11-19T10:47:50.434Z,6.70
2022-11-19T10:49:54.296Z,6.70
2022-11-19T10:51:55.999Z,6.70
2022-11-19T10:53:57.903Z,6.80
2022-11-19T10:56:22.277Z,6.80
2022-11-19T10:58:42.697Z,6.90
2022-11-19T11:00:44.892Z,7.00
2022-11-19T11:02:52.317Z,7.00
2022-11-19T11:05:13.212Z,7.10
2022-11-19T11:07:15.275Z,7.20
2022-11-19T11:09:36.583Z,7.30
2022-11-19T11:12:08.044Z,7.30
2022-11-19T11:14:29.954Z,7.40
2022-11-19T11:16:45.356Z,7.40
2022-11-19T11:18:48.461Z,7.50
2022-11-19T11:20:52.112Z,7.50
2022-11-19T11:23:06.572Z,7.40
2022-11-19T11:25:25.685Z,7.20
2022-11-19T11:27:33.789Z,7.10
2022-11-19T11:29:35.452Z,7.00
2022-11-19T11:31:40.267Z,6.90
2022-11-19T11:33:54.522Z,6.80
2022-11-19T11:36:01.996Z,6.70
2022-11-19T11:38:05.043Z,6.70
2022-11-19T11:40:07.424Z,6.70
2022-11-19T11:42:17.552Z,6.70
2022-11-19T11:44:23.403Z,6.60
2022-11-19T11:46:25.132Z,6.60
2022-11-19T11:48:43.664Z,6.50
2022-11-19T11:50:46.392Z,6.50
2022-11-19T11:52:51.486Z,6.50
2022-11-19T11:55:12.538Z,6.60
2022-11-19T11:57:18.323Z,6.60
2022-11-19T11:59:25.277Z,6.50
2022-11-19T12:01:27.000Z,6.50
2022-11-19T12:03:31.147Z,6.50
2022-11-19T12:05:54.898Z,6.50
2022-11-19T12:08:06.666Z,6.60
2022-11-19T12:10:27.075Z,6.60
2022-11-19T12:12:34.497Z,6.60
2022-11-19T12:14:53.245Z,6.60
2022-11-19T12:17:01.073Z,6.50
2022-11-19T12:19:21.490Z,6.40
2022-11-19T12:21:32.521Z,6.40
2022-11-19T12:23:47.802Z,6.40
2022-11-19T12:26:12.617Z,6.40
2022-11-19T12:28:44.229Z,6.30
2022-11-19T12:31:13.798Z,6.30
2022-11-19T12:33:24.224Z,6.30
2022-11-19T12:35:25.832Z,6.20
2022-11-19T12:38:01.700Z,6.20
2022-11-19T12:40:21.812Z,6.00
2022-11-19T12:42:56.497Z,6.00
2022-11-19T12:45:06.084Z,5.90
2022-11-19T12:47:45.138Z,5.90
2022-11-19T12:50:05.693Z,5.80
2022-11-19T12:52:38.245Z,5.80
2022-11-19T12:55:08.877Z,5.80
2022-11-19T12:57:30.552Z,5.80
2022-11-19T12:59:42.904Z,5.80
2022-11-19T13:01:50.413Z,5.90
2022-11-19T13:04:11.295Z,5.80
2022-11-19T13:06:25.699Z,5.80
2022-11-19T13:08:37.039Z,5.80
2022-11-19T13:10:44.503Z,5.70
2022-11-19T13:12:51.140Z,5.70
2022-11-19T13:14:56.981Z,5.70
2022-11-19T13:17:00.344Z,5.70
2022-11-19T13:19:12.902Z,5.70
2022-11-19T13:21:20.985Z,5.70
2022-11-19T13:23:38.572Z,5.70
2022-11-19T13:25:49.974Z,5.70
2022-11-19T13:27:54.697Z,5.70
2022-11-19T13:30:04.465Z,5.70
2022-11-19T13:32:26.395Z,5.70
2022-11-19T13:34:45.350Z,5.70
2022-11-19T13:36:57.988Z,5.70
2022-11-19T13:39:11.510Z,5.70
2022-11-19T13:41:16.714Z,5.70
2022-11-19T13:43:39.967Z,5.70
2022-11-19T13:45:44.850Z,5.70
2022-11-19T13:47:58.023Z,5.70
2022-11-19T13:50:06.307Z,5.70
2022-11-19T13:52:26.034Z,5.70
2022-11-19T13:54:38.767Z,5.70
2022-11-19T13:56:50.174Z,5.70
2022-11-19T13:58:54.965Z,5.70
2022-11-19T14:01:26.315Z,5.70
2022-11-19T14:03:46.859Z,5.70
2022-11-19T14:06:19.573Z,5.80
2022-11-19T14:08:24.816Z,5.80
2022-11-19T14:11:00.521Z,5.80
2022-11-19T14:13:20.600Z,5.90
2022-11-19T14:16:02.137Z,5.90
2022-11-19T14:18:31.498Z,5.90
2022-11-19T14:20:59.050Z,5.90
2022-11-19T14:23:19.297Z,5.80
2022-11-19T14:25:57.794Z,5.80
2022-11-19T14:28:40.034Z,5.80
2022-11-19T14:31:03.702Z,5.80
2022-11-19T14:33:44.074Z,5.80
2022-11-19T14:35:46.403Z,5.80
2022-11-19T14:38:00.013Z,5.90
2022-11-19T14:40:28.071Z,5.90
2022-11-19T14:42:29.823Z,5.90
2022-11-19T14:44:33.297Z,6.00
2022-11-19T14:46:40.307Z,6.00
2022-11-19T14:48:42.066Z,6.00
2022-11-19T14:50:43.838Z,6.00
2022-11-19T14:52:56.690Z,6.00
2022-11-19T14:55:21.714Z,6.00
2022-11-19T14:57:39.355Z,6.00
2022-11-19T14:59:47.181Z,6.00
2022-11-19T15:02:03.337Z,5.90
2022-11-19T15:04:10.712Z,5.90
2022-11-19T15:06:17.590Z,5.90
2022-11-19T15:08:19.300Z,5.90
2022-11-19T15:10:27.345Z,5.90
2022-11-19T15:13:13.544Z,5.90
2022-11-19T15:15:21.208Z,5.80
2022-11-19T15:17:23.020Z,5.90
2022-11-19T15:19:58.145Z,5.80
2022-11-19T15:22:08.702Z,5.80
2022-11-19T15:24:41.281Z,5.80
2022-11-19T15:26:54.938Z,5.70
2022-11-19T15:29:22.713Z,5.70
2022-11-19T15:31:43.402Z,5.70
2022-11-19T15:34:00.150Z,5.60
2022-11-19T15:36:08.590Z,5.60
2022-11-19T15:38:18.489Z,5.50
2022-11-19T15:40:29.290Z,5.50
2022-11-19T15:42:42.067Z,5.40
2022-11-19T15:44:57.035Z,5.40
2022-11-19T15:47:01.712Z,5.30
2022-11-19T15:49:27.926Z,5.30
2022-11-19T15:51:37.953Z,5.30
2022-11-19T15:54:03.069Z,5.20
2022-11-19T15:56:11.828Z,5.10
2022-11-19T15:58:16.129Z,5.10
2022-11-19T16:00:20.965Z,5.10
2022-11-19T16:02:33.289Z,5.10
2022-11-19T16:04:39.293Z,5.10
2022-11-19T16:06:44.816Z,5.00
2022-11-19T16:08:51.187Z,5.00
2022-11-19T16:11:17.282Z,5.00
2022-11-19T16:13:43.158Z,5.00
2022-11-19T16:16:11.439Z,5.00
2022-11-19T16:18:14.781Z,5.00
2022-11-19T16:20:20.551Z,4.90
2022-11-19T16:22:22.971Z,4.90
2022-11-19T16:24:45.214Z,4.90
2022-11-19T16:26:48.616Z,4.90
2022-11-19T16:28:50.464Z,4.90
2022-11-19T16:31:05.664Z,4.90
2022-11-19T16:33:14.828Z,4.90
2022-11-19T16:35:34.429Z,4.90
2022-11-19T16:37:36.505Z,4.90
2022-11-19T16:39:40.165Z,4.90
2022-11-19T16:42:00.892Z,4.90
2022-11-19T16:44:12.242Z,5.00
2022-11-19T16:46:17.132Z,5.10
2022-11-19T16:48:49.850Z,5.10
2022-11-19T16:50:51.603Z,5.10
2022-11-19T16:52:54.315Z,5.10
2022-11-19T16:54:56.000Z,5.10
2022-11-19T16:56:57.802Z,5.00
2022-11-19T16:59:04.583Z,5.00
2022-11-19T17:01:06.570Z,4.90
2022-11-19T17:03:19.283Z,4.90
2022-11-19T17:05:24.723Z,4.90
2022-11-19T17:07:27.813Z,4.90
2022-11-19T17:09:44.438Z,4.90
2022-11-19T17:12:04.691Z,4.80
2022-11-19T17:14:28.112Z,4.90
2022-11-19T17:16:29.878Z,4.90
2022-11-19T17:18:34.930Z,4.90
2022-11-19T17:20:36.577Z,4.90
2022-11-19T17:22:40.120Z,4.90
2022-11-19T17:24:45.344Z,4.90
2022-11-19T17:26:49.220Z,4.90
2022-11-19T17:28:56.192Z,4.90
2022-11-19T17:30:58.670Z,4.90
2022-11-19T17:33:03.737Z,5.00
2022-11-19T17:35:09.397Z,5.00
2022-11-19T17:37:11.162Z,5.00
2022-11-19T17:39:14.687Z,5.00
2022-11-19T17:41:39.874Z,5.00
2022-11-19T17:44:00.386Z,5.00
2022-11-19T17:46:02.035Z,4.90
2022-11-19T17:48:26.081Z,4.90
2022-11-19T17:50:27.723Z,4.90
2022-11-19T17:52:31.687Z,4.90
2022-11-19T17:54:34.259Z,4.90
2022-11-19T17:56:35.981Z,4.90
2022-11-19T17:58:38.040Z,4.80
2022-11-19T18:00:40.001Z,4.80
2022-11-19T18:02:41.677Z,4.70
2022-11-19T18:04:44.738Z,4.70
2022-11-19T18:06:47.259Z,4.80
2022-11-19T18:08:49.016Z,4.80
2022-11-19T18:10:50.742Z,4.80
2022-11-19T18:12:52.478Z,4.90
2022-11-19T18:14:59.264Z,4.90
2022-11-19T18:17:02.519Z,4.90
2022-11-19T18:19:13.527Z,4.90
2022-11-19T18:21:20.657Z,4.90
2022-11-19T18:23:22.279Z,4.90
2022-11-19T18:25:24.079Z,4.90
2022-11-19T18:27:25.784Z,4.90
2022-11-19T18:29:31.984Z,4.90
2022-11-19T18:31:45.512Z,4.90
2022-11-19T18:33:50.646Z,4.80
2022-11-19T18:35:52.296Z,4.80
2022-11-19T18:37:54.259Z,4.80
2022-11-19T18:39:56.084Z,4.80
2022-11-19T18:41:57.723Z,4.80
2022-11-19T18:44:18.302Z,4.80
2022-11-19T18:46:20.248Z,4.80
2022-11-19T18:48:21.935Z,4.80
2022-11-19T18:50:29.335Z,4.90
2022-11-19T18:52:31.651Z,4.90
2022-11-19T18:54:33.847Z,4.90
2022-11-19T18:56:35.522Z,4.90
2022-11-19T18:58:37.192Z,4.90
2022-11-19T19:00:39.085Z,4.80
2022-11-19T19:02:40.712Z,4.90
2022-11-19T19:04:42.941Z,4.90
2022-11-19T19:06:45.295Z,4.90
2022-11-19T19:08:49.398Z,4.90
2022-11-19T19:10:51.159Z,4.90
2022-11-19T19:12:52.820Z,4.90
2022-11-19T19:14:56.054Z,4.90
2022-11-19T19:16:57.790Z,4.90
2022-11-19T19:19:00.443Z,4.90
2022-11-19T19:21:02.540Z,4.90
2022-11-19T19:23:04.332Z,4.90
2022-11-19T19:25:06.582Z,4.90
2022-11-19T19:27:09.025Z,4.90
2022-11-19T19:29:10.920Z,4.90
2022-11-19T19:31:17.616Z,4.90
2022-11-19T19:33:19.829Z,4.90
2022-11-19T19:35:21.696Z,4.90
2022-11-19T19:37:23.597Z,4.90
2022-11-19T19:39:25.862Z,4.90
2022-11-19T19:41:28.353Z,5.00
2022-11-19T19:43:30.628Z,5.00
2022-11-19T19:45:35.973Z,5.00
2022-11-19T19:47:37.738Z,4.90
2022-11-19T19:49:39.717Z,5.00
2022-11-19T19:51:41.784Z,5.00
2022-11-19T19:53:44.075Z,5.00
2022-11-19T19:55:45.723Z,5.00
2022-11-19T19:57:47.371Z,5.00
2022-11-19T19:59:49.023Z,5.00
2022-11-19T20:01:51.540Z,5.00
2022-11-19T20:03:55.016Z,5.00
2022-11-19T20:05:56.835Z,4.90
2022-11-19T20:07:58.600Z,4.90
2022-11-19T20:10:00.301Z,4.90
2022-11-19T20:12:02.238Z,4.90
2022-11-19T20:14:04.352Z,4.90
2022-11-19T20:16:18.302Z,4.90
2022-11-19T20:18:20.437Z,4.90
2022-11-19T20:20:22.133Z,4.90
2022-11-19T20:22:24.155Z,4.90
2022-11-19T20:24:25.853Z,4.90
2022-11-19T20:26:29.847Z,4.90
2022-11-19T20:28:32.220Z,4.90
2022-11-19T20:30:33.948Z,4.80
2022-11-19T20:32:35.647Z,4.80
2022-11-19T20:34:37.401Z,4.70
2022-11-19T20:36:39.301Z,4.70
2022-11-19T20:38:42.544Z,4.70
2022-11-19T20:40:56.380Z,4.60
2022-11-19T20:43:16.589Z,4.60
2022-11-19T20:45:18.308Z,4.60
2022-11-19T20:47:20.186Z,4.60
2022-11-19T20:49:24.843Z,4.60
2022-11-19T20:51:27.271Z,4.60
2022-11-19T20:53:29.037Z,4.70
2022-11-19T20:55:30.923Z,4.60
2022-11-19T20:57:32.575Z,4.60
2022-11-19T20:59:34.252Z,4.60
2022-11-19T21:01:36.837Z,4.60
2022-11-19T21:03:39.291Z,4.50
2022-11-19T21:05:40.994Z,4.50
2022-11-19T21:07:42.750Z,4.50
2022-11-19T21:09:44.519Z,4.50
2022-11-19T21:11:46.285Z,4.50
2022-11-19T21:13:47.905Z,4.40
2022-11-19T21:15:49.640Z,4.40
2022-11-19T21:17:51.275Z,4.40
2022-11-19T21:19:52.968Z,4.40
2022-11-19T21:21:54.756Z,4.40
2022-11-19T21:23:56.685Z,4.40
2022-11-19T21:26:07.536Z,4.30
2022-11-19T21:28:09.413Z,4.30
2022-11-19T21:30:11.996Z,4.20
2022-11-19T21:32:13.695Z,4.20
2022-11-19T21:34:17.958Z,4.10
2022-11-19T21:36:19.703Z,4.20
2022-11-19T21:38:22.481Z,4.20
2022-11-19T21:40:24.243Z,4.20
2022-11-19T21:42:25.932Z,4.30
2022-11-19T21:44:27.609Z,4.30
2022-11-19T21:46:29.470Z,4.40
2022-11-19T21:48:31.101Z,4.40
2022-11-19T21:50:33.417Z,4.40
2022-11-19T21:52:35.067Z,4.40
2022-11-19T21:54:36.713Z,4.40
2022-11-19T21:56:39.137Z,4.40
2022-11-19T21:58:40.907Z,4.40
2022-11-19T22:00:43.805Z,4.40
2022-11-19T22:02:45.647Z,4.40
2022-11-19T22:04:47.319Z,4.40
2022-11-19T22:06:49.020Z,4.40
2022-11-19T22:08:50.731Z,4.30
2022-11-19T22:10:52.388Z,4.30
2022-11-19T22:12:54.473Z,4.20
2022-11-19T22:14:56.114Z,4.20
2022-11-19T22:16:57.851Z,4.10
2022-11-19T22:19:00.138Z,4.20
2022-11-19T22:21:02.581Z,4.20
2022-11-19T22:23:04.204Z,4.10
2022-11-19T22:25:06.065Z,4.20
2022-11-19T22:27:07.756Z,4.20
2022-11-19T22:29:09.428Z,4.20
2022-11-19T22:31:11.620Z,4.20
2022-11-19T22:33:13.327Z,4.20
2022-11-19T22:35:15.105Z,4.20
2022-11-19T22:37:16.809Z,4.20
2022-11-19T22:39:19.654Z,4.20
2022-11-19T22:41:22.063Z,4.20
2022-11-19T22:43:23.773Z,4.20
2022-11-19T22:45:25.405Z,4.30
2022-11-19T22:47:27.413Z,4.30
2022-11-19T22:49:29.110Z,4.30
2022-11-19T22:51:30.797Z,4.30
2022-11-19T22:53:35.501Z,4.30
2022-11-19T22:55:37.738Z,4.30
2022-11-19T22:57:39.431Z,4.20
2022-11-19T22:59:41.185Z,4.20
2022-11-19T23:01:42.956Z,4.20
2022-11-19T23:03:45.759Z,4.20
2022-11-19T23:05:53.657Z,4.20
2022-11-19T23:07:55.326Z,4.20
2022-11-19T23:09:57.021Z,4.20
2022-11-19T23:12:17.490Z,4.20
2022-11-19T23:14:19.772Z,4.20
2022-11-19T23:16:21.411Z,4.20
2022-11-19T23:18:23.062Z,4.20
2022-11-19T23:20:24.723Z,4.20
2022-11-19T23:22:26.393Z,4.20
2022-11-19T23:24:28.156Z,4.20
2022-11-19T23:26:31.749Z,4.20
2022-11-19T23:28:34.840Z,4.10
2022-11-19T23:30:36.581Z,4.10
2022-11-19T23:32:38.301Z,4.10
2022-11-19T23:34:40.028Z,4.10
2022-11-19T23:36:42.459Z,4.10
2022-11-19T23:38:45.108Z,4.10
2022-11-19T23:40:47.237Z,4.10
2022-11-19T23:42:51.976Z,4.10
2022-11-19T23:44:53.895Z,4.00
2022-11-19T23:46:55.547Z,4.00
2022-11-19T23:48:58.790Z,4.00
2022-11-19T23:51:05.617Z,4.00
2022-11-19T23:53:07.320Z,3.90
2022-11-19T23:55:09.221Z,3.90
2022-11-19T23:57:10.921Z,3.90
2022-11-19T23:59:12.597Z,3.90
